sensor_id;sensor_type;location;lat;lon;timestamp;temperature;humidity
44063;DHT22;29727;47.606;19.130;2023-03-05T00:01:26;5.30;64.20
44063;DHT22;29727;47.606;19.130;2023-03-05T00:03:53;5.30;64.10
44063;DHT22;29727;47.606;19.130;2023-03-05T00:06:21;5.20;64.00
44063;DHT22;29727;47.606;19.130;2023-03-05T00:08:48;5.20;64.60
44063;DHT22;29727;47.606;19.130;2023-03-05T00:11:14;5.10;65.00
44063;DHT22;29727;47.606;19.130;2023-03-05T00:13:41;5.00;65.40
44063;DHT22;29727;47.606;19.130;2023-03-05T00:16:13;4.90;65.70
44063;DHT22;29727;47.606;19.130;2023-03-05T00:18:39;4.90;66.10
44063;DHT22;29727;47.606;19.130;2023-03-05T00:23:44;4.70;66.70
44063;DHT22;29727;47.606;19.130;2023-03-05T00:26:10;4.80;66.90
44063;DHT22;29727;47.606;19.130;2023-03-05T00:28:36;4.80;66.80
44063;DHT22;29727;47.606;19.130;2023-03-05T00:31:02;4.80;66.80
44063;DHT22;29727;47.606;19.130;2023-03-05T00:33:27;4.80;66.60
44063;DHT22;29727;47.606;19.130;2023-03-05T00:35:53;4.80;66.80
44063;DHT22;29727;47.606;19.130;2023-03-05T00:38:19;4.80;66.70
44063;DHT22;29727;47.606;19.130;2023-03-05T00:40:44;4.80;66.90
44063;DHT22;29727;47.606;19.130;2023-03-05T00:43:10;4.80;67.10
44063;DHT22;29727;47.606;19.130;2023-03-05T00:45:36;4.70;66.80
44063;DHT22;29727;47.606;19.130;2023-03-05T00:48:02;4.70;67.40
44063;DHT22;29727;47.606;19.130;2023-03-05T00:50:28;4.70;67.20
44063;DHT22;29727;47.606;19.130;2023-03-05T00:52:54;4.70;67.30
44063;DHT22;29727;47.606;19.130;2023-03-05T00:55:20;4.70;66.90
44063;DHT22;29727;47.606;19.130;2023-03-05T00:57:46;4.80;67.00
44063;DHT22;29727;47.606;19.130;2023-03-05T01:00:13;4.80;66.70
44063;DHT22;29727;47.606;19.130;2023-03-05T01:02:39;4.90;66.50
44063;DHT22;29727;47.606;19.130;2023-03-05T01:05:05;4.90;66.20
44063;DHT22;29727;47.606;19.130;2023-03-05T01:07:31;4.90;66.20
44063;DHT22;29727;47.606;19.130;2023-03-05T01:09:56;5.00;66.30
44063;DHT22;29727;47.606;19.130;2023-03-05T01:12:22;5.00;66.80
44063;DHT22;29727;47.606;19.130;2023-03-05T01:14:48;4.90;66.10
44063;DHT22;29727;47.606;19.130;2023-03-05T01:17:13;4.90;66.20
44063;DHT22;29727;47.606;19.130;2023-03-05T01:19:39;4.90;66.30
44063;DHT22;29727;47.606;19.130;2023-03-05T01:22:05;4.90;66.30
44063;DHT22;29727;47.606;19.130;2023-03-05T01:24:31;4.90;66.30
44063;DHT22;29727;47.606;19.130;2023-03-05T01:26:57;5.00;65.70
44063;DHT22;29727;47.606;19.130;2023-03-05T01:29:23;5.00;66.20
44063;DHT22;29727;47.606;19.130;2023-03-05T01:31:49;5.00;66.10
44063;DHT22;29727;47.606;19.130;2023-03-05T01:34:14;5.00;66.10
44063;DHT22;29727;47.606;19.130;2023-03-05T01:36:41;5.10;65.90
44063;DHT22;29727;47.606;19.130;2023-03-05T01:39:06;5.10;65.70
44063;DHT22;29727;47.606;19.130;2023-03-05T01:41:32;5.20;66.00
44063;DHT22;29727;47.606;19.130;2023-03-05T01:43:58;5.20;65.10
44063;DHT22;29727;47.606;19.130;2023-03-05T01:46:31;5.30;65.70
44063;DHT22;29727;47.606;19.130;2023-03-05T01:51:32;5.30;65.30
44063;DHT22;29727;47.606;19.130;2023-03-05T01:54:00;5.40;65.20
44063;DHT22;29727;47.606;19.130;2023-03-05T01:56:28;5.40;65.20
44063;DHT22;29727;47.606;19.130;2023-03-05T01:58:56;5.40;64.90
44063;DHT22;29727;47.606;19.130;2023-03-05T02:01:30;5.40;64.90
44063;DHT22;29727;47.606;19.130;2023-03-05T02:03:57;5.40;65.30
44063;DHT22;29727;47.606;19.130;2023-03-05T02:06:23;5.50;64.90
44063;DHT22;29727;47.606;19.130;2023-03-05T02:08:48;5.50;64.90
44063;DHT22;29727;47.606;19.130;2023-03-05T02:11:14;5.50;64.70
44063;DHT22;29727;47.606;19.130;2023-03-05T02:13:40;5.60;64.90
44063;DHT22;29727;47.606;19.130;2023-03-05T02:16:06;5.60;64.60
44063;DHT22;29727;47.606;19.130;2023-03-05T02:18:32;5.60;64.50
44063;DHT22;29727;47.606;19.130;2023-03-05T02:23:31;5.70;64.60
44063;DHT22;29727;47.606;19.130;2023-03-05T02:26:09;5.70;64.50
44063;DHT22;29727;47.606;19.130;2023-03-05T02:28:49;5.70;64.20
44063;DHT22;29727;47.606;19.130;2023-03-05T02:31:21;5.80;64.00
44063;DHT22;29727;47.606;19.130;2023-03-05T02:33:48;5.80;64.00
44063;DHT22;29727;47.606;19.130;2023-03-05T02:36:14;5.80;64.10
44063;DHT22;29727;47.606;19.130;2023-03-05T02:38:41;5.80;64.10
44063;DHT22;29727;47.606;19.130;2023-03-05T02:41:08;5.90;63.70
44063;DHT22;29727;47.606;19.130;2023-03-05T02:43:34;5.90;63.90
44063;DHT22;29727;47.606;19.130;2023-03-05T02:46:00;5.90;63.70
44063;DHT22;29727;47.606;19.130;2023-03-05T02:48:26;5.90;63.80
44063;DHT22;29727;47.606;19.130;2023-03-05T02:50:53;5.90;63.50
44063;DHT22;29727;47.606;19.130;2023-03-05T02:53:19;5.90;63.70
44063;DHT22;29727;47.606;19.130;2023-03-05T02:55:46;5.90;63.60
44063;DHT22;29727;47.606;19.130;2023-03-05T02:58:12;5.90;63.50
44063;DHT22;29727;47.606;19.130;2023-03-05T03:00:38;5.90;63.60
44063;DHT22;29727;47.606;19.130;2023-03-05T03:03:03;5.80;64.10
44063;DHT22;29727;47.606;19.130;2023-03-05T03:05:29;5.80;64.30
44063;DHT22;29727;47.606;19.130;2023-03-05T03:07:55;5.70;64.40
44063;DHT22;29727;47.606;19.130;2023-03-05T03:10:21;5.60;64.90
44063;DHT22;29727;47.606;19.130;2023-03-05T03:12:46;5.50;65.40
44063;DHT22;29727;47.606;19.130;2023-03-05T03:15:14;5.40;65.70
44063;DHT22;29727;47.606;19.130;2023-03-05T03:17:40;5.30;66.10
44063;DHT22;29727;47.606;19.130;2023-03-05T03:20:08;5.30;66.20
44063;DHT22;29727;47.606;19.130;2023-03-05T03:22:35;5.30;66.20
44063;DHT22;29727;47.606;19.130;2023-03-05T03:25:01;5.20;66.50
44063;DHT22;29727;47.606;19.130;2023-03-05T03:27:27;5.20;66.30
44063;DHT22;29727;47.606;19.130;2023-03-05T03:29:53;5.20;66.40
44063;DHT22;29727;47.606;19.130;2023-03-05T03:32:18;5.30;66.50
44063;DHT22;29727;47.606;19.130;2023-03-05T03:34:44;5.20;66.80
44063;DHT22;29727;47.606;19.130;2023-03-05T03:37:10;5.30;66.70
44063;DHT22;29727;47.606;19.130;2023-03-05T03:39:35;5.30;66.60
44063;DHT22;29727;47.606;19.130;2023-03-05T03:42:01;5.30;66.80
44063;DHT22;29727;47.606;19.130;2023-03-05T03:44:27;5.30;66.60
44063;DHT22;29727;47.606;19.130;2023-03-05T03:46:52;5.30;66.30
44063;DHT22;29727;47.606;19.130;2023-03-05T03:49:24;5.40;66.40
44063;DHT22;29727;47.606;19.130;2023-03-05T03:51:51;5.30;66.10
44063;DHT22;29727;47.606;19.130;2023-03-05T03:54:18;5.30;65.80
44063;DHT22;29727;47.606;19.130;2023-03-05T03:56:45;5.30;66.40
44063;DHT22;29727;47.606;19.130;2023-03-05T03:59:11;5.40;66.50
44063;DHT22;29727;47.606;19.130;2023-03-05T04:01:37;5.40;66.50
44063;DHT22;29727;47.606;19.130;2023-03-05T04:04:03;5.50;66.10
44063;DHT22;29727;47.606;19.130;2023-03-05T04:06:29;5.40;65.60
44063;DHT22;29727;47.606;19.130;2023-03-05T04:08:55;5.40;66.20
44063;DHT22;29727;47.606;19.130;2023-03-05T04:11:21;5.40;65.80
44063;DHT22;29727;47.606;19.130;2023-03-05T04:13:47;5.40;66.00
44063;DHT22;29727;47.606;19.130;2023-03-05T04:16:14;5.40;66.20
44063;DHT22;29727;47.606;19.130;2023-03-05T04:18:40;5.40;66.40
44063;DHT22;29727;47.606;19.130;2023-03-05T04:21:06;5.40;65.60
44063;DHT22;29727;47.606;19.130;2023-03-05T04:23:32;5.40;66.00
44063;DHT22;29727;47.606;19.130;2023-03-05T04:25:58;5.50;66.00
44063;DHT22;29727;47.606;19.130;2023-03-05T04:28:24;5.50;65.70
44063;DHT22;29727;47.606;19.130;2023-03-05T04:30:50;5.60;65.90
44063;DHT22;29727;47.606;19.130;2023-03-05T04:33:15;5.60;65.90
44063;DHT22;29727;47.606;19.130;2023-03-05T04:35:41;5.60;65.20
44063;DHT22;29727;47.606;19.130;2023-03-05T04:38:07;5.70;65.40
44063;DHT22;29727;47.606;19.130;2023-03-05T04:40:33;5.60;65.40
44063;DHT22;29727;47.606;19.130;2023-03-05T04:42:59;5.60;65.30
44063;DHT22;29727;47.606;19.130;2023-03-05T04:45:25;5.60;65.40
44063;DHT22;29727;47.606;19.130;2023-03-05T04:47:51;5.60;65.70
44063;DHT22;29727;47.606;19.130;2023-03-05T04:50:16;5.50;65.90
44063;DHT22;29727;47.606;19.130;2023-03-05T04:52:43;5.40;66.20
44063;DHT22;29727;47.606;19.130;2023-03-05T04:55:11;5.40;66.50
44063;DHT22;29727;47.606;19.130;2023-03-05T04:57:38;5.40;66.50
44063;DHT22;29727;47.606;19.130;2023-03-05T05:00:09;5.30;66.50
44063;DHT22;29727;47.606;19.130;2023-03-05T05:02:42;5.30;66.70
44063;DHT22;29727;47.606;19.130;2023-03-05T05:05:10;5.30;66.70
44063;DHT22;29727;47.606;19.130;2023-03-05T05:07:37;5.30;67.00
44063;DHT22;29727;47.606;19.130;2023-03-05T05:10:03;5.30;67.20
44063;DHT22;29727;47.606;19.130;2023-03-05T05:12:29;5.30;67.10
44063;DHT22;29727;47.606;19.130;2023-03-05T05:14:56;5.30;67.30
44063;DHT22;29727;47.606;19.130;2023-03-05T05:17:22;5.20;67.20
44063;DHT22;29727;47.606;19.130;2023-03-05T05:19:48;5.20;67.40
44063;DHT22;29727;47.606;19.130;2023-03-05T05:22:13;5.30;67.40
44063;DHT22;29727;47.606;19.130;2023-03-05T05:24:39;5.30;67.60
44063;DHT22;29727;47.606;19.130;2023-03-05T05:27:05;5.20;67.60
44063;DHT22;29727;47.606;19.130;2023-03-05T05:29:30;5.30;67.50
44063;DHT22;29727;47.606;19.130;2023-03-05T05:31:56;5.30;67.70
44063;DHT22;29727;47.606;19.130;2023-03-05T05:34:21;5.20;67.60
44063;DHT22;29727;47.606;19.130;2023-03-05T05:36:49;5.20;67.70
44063;DHT22;29727;47.606;19.130;2023-03-05T05:39:15;5.20;67.90
44063;DHT22;29727;47.606;19.130;2023-03-05T05:41:41;5.10;68.10
44063;DHT22;29727;47.606;19.130;2023-03-05T05:44:06;5.20;68.20
44063;DHT22;29727;47.606;19.130;2023-03-05T05:46:32;5.20;67.80
44063;DHT22;29727;47.606;19.130;2023-03-05T05:48:57;5.30;67.70
44063;DHT22;29727;47.606;19.130;2023-03-05T05:51:23;5.30;66.50
44063;DHT22;29727;47.606;19.130;2023-03-05T05:53:49;5.30;66.10
44063;DHT22;29727;47.606;19.130;2023-03-05T05:56:15;5.40;66.00
44063;DHT22;29727;47.606;19.130;2023-03-05T05:58:42;5.40;66.80
44063;DHT22;29727;47.606;19.130;2023-03-05T06:01:29;5.40;67.10
44063;DHT22;29727;47.606;19.130;2023-03-05T06:03:56;5.50;66.90
44063;DHT22;29727;47.606;19.130;2023-03-05T06:06:23;5.50;66.80
44063;DHT22;29727;47.606;19.130;2023-03-05T06:08:50;5.60;66.10
44063;DHT22;29727;47.606;19.130;2023-03-05T06:11:16;5.60;66.20
44063;DHT22;29727;47.606;19.130;2023-03-05T06:13:42;5.60;66.20
44063;DHT22;29727;47.606;19.130;2023-03-05T06:16:11;5.70;65.80
44063;DHT22;29727;47.606;19.130;2023-03-05T06:18:38;5.60;66.10
44063;DHT22;29727;47.606;19.130;2023-03-05T06:21:06;5.60;65.70
44063;DHT22;29727;47.606;19.130;2023-03-05T06:23:32;5.60;66.00
44063;DHT22;29727;47.606;19.130;2023-03-05T06:26:03;5.60;66.10
44063;DHT22;29727;47.606;19.130;2023-03-05T06:28:30;5.60;66.20
44063;DHT22;29727;47.606;19.130;2023-03-05T06:31:05;5.50;66.30
44063;DHT22;29727;47.606;19.130;2023-03-05T06:33:32;5.50;66.40
44063;DHT22;29727;47.606;19.130;2023-03-05T06:35:58;5.50;66.60
44063;DHT22;29727;47.606;19.130;2023-03-05T06:38:24;5.50;66.30
44063;DHT22;29727;47.606;19.130;2023-03-05T06:40:50;5.50;66.20
44063;DHT22;29727;47.606;19.130;2023-03-05T06:43:16;5.50;66.40
44063;DHT22;29727;47.606;19.130;2023-03-05T06:45:42;5.60;66.20
44063;DHT22;29727;47.606;19.130;2023-03-05T06:48:08;5.50;66.70
44063;DHT22;29727;47.606;19.130;2023-03-05T06:50:35;5.50;66.40
44063;DHT22;29727;47.606;19.130;2023-03-05T06:53:01;5.60;66.70
44063;DHT22;29727;47.606;19.130;2023-03-05T06:55:27;5.50;66.70
44063;DHT22;29727;47.606;19.130;2023-03-05T06:57:53;5.60;66.90
44063;DHT22;29727;47.606;19.130;2023-03-05T07:00:19;5.60;67.30
44063;DHT22;29727;47.606;19.130;2023-03-05T07:02:44;5.70;66.50
44063;DHT22;29727;47.606;19.130;2023-03-05T07:05:10;5.80;66.00
44063;DHT22;29727;47.606;19.130;2023-03-05T07:07:36;5.70;66.40
44063;DHT22;29727;47.606;19.130;2023-03-05T07:10:03;5.80;66.20
44063;DHT22;29727;47.606;19.130;2023-03-05T07:12:32;5.70;66.20
44063;DHT22;29727;47.606;19.130;2023-03-05T07:14:58;5.70;66.50
44063;DHT22;29727;47.606;19.130;2023-03-05T07:17:24;5.70;66.70
44063;DHT22;29727;47.606;19.130;2023-03-05T07:19:49;5.70;66.70
44063;DHT22;29727;47.606;19.130;2023-03-05T07:22:15;5.70;66.80
44063;DHT22;29727;47.606;19.130;2023-03-05T07:24:41;5.70;66.90
44063;DHT22;29727;47.606;19.130;2023-03-05T07:27:06;5.70;67.00
44063;DHT22;29727;47.606;19.130;2023-03-05T07:29:32;5.70;67.00
44063;DHT22;29727;47.606;19.130;2023-03-05T07:31:58;5.70;67.00
44063;DHT22;29727;47.606;19.130;2023-03-05T07:34:23;5.80;67.00
44063;DHT22;29727;47.606;19.130;2023-03-05T07:36:50;5.80;66.60
44063;DHT22;29727;47.606;19.130;2023-03-05T07:39:16;5.80;66.40
44063;DHT22;29727;47.606;19.130;2023-03-05T07:41:44;5.90;66.40
44063;DHT22;29727;47.606;19.130;2023-03-05T07:44:11;5.90;66.30
44063;DHT22;29727;47.606;19.130;2023-03-05T07:46:37;5.90;66.20
44063;DHT22;29727;47.606;19.130;2023-03-05T07:49:03;5.90;66.50
44063;DHT22;29727;47.606;19.130;2023-03-05T07:51:29;5.90;66.30
44063;DHT22;29727;47.606;19.130;2023-03-05T07:53:56;5.90;66.20
44063;DHT22;29727;47.606;19.130;2023-03-05T07:56:28;5.90;66.40
44063;DHT22;29727;47.606;19.130;2023-03-05T07:59:00;5.90;66.10
44063;DHT22;29727;47.606;19.130;2023-03-05T08:01:28;5.80;66.60
44063;DHT22;29727;47.606;19.130;2023-03-05T08:03:53;5.90;66.70
44063;DHT22;29727;47.606;19.130;2023-03-05T08:06:19;5.90;66.40
44063;DHT22;29727;47.606;19.130;2023-03-05T08:08:45;5.90;66.70
44063;DHT22;29727;47.606;19.130;2023-03-05T08:11:12;6.00;66.60
44063;DHT22;29727;47.606;19.130;2023-03-05T08:13:39;6.00;66.30
44063;DHT22;29727;47.606;19.130;2023-03-05T08:16:06;6.10;66.70
44063;DHT22;29727;47.606;19.130;2023-03-05T08:18:33;6.10;66.70
44063;DHT22;29727;47.606;19.130;2023-03-05T08:20:59;6.20;66.20
44063;DHT22;29727;47.606;19.130;2023-03-05T08:23:25;6.20;66.20
44063;DHT22;29727;47.606;19.130;2023-03-05T08:25:52;6.20;66.20
44063;DHT22;29727;47.606;19.130;2023-03-05T08:28:17;6.10;66.20
44063;DHT22;29727;47.606;19.130;2023-03-05T08:30:45;6.10;66.60
44063;DHT22;29727;47.606;19.130;2023-03-05T08:33:11;6.00;66.30
44063;DHT22;29727;47.606;19.130;2023-03-05T08:35:37;6.00;66.80
44063;DHT22;29727;47.606;19.130;2023-03-05T08:38:03;6.00;66.70
44063;DHT22;29727;47.606;19.130;2023-03-05T08:40:29;6.00;67.10
44063;DHT22;29727;47.606;19.130;2023-03-05T08:42:54;6.00;67.10
44063;DHT22;29727;47.606;19.130;2023-03-05T08:45:20;6.00;67.50
44063;DHT22;29727;47.606;19.130;2023-03-05T08:47:46;6.00;66.70
44063;DHT22;29727;47.606;19.130;2023-03-05T08:50:11;6.10;66.70
44063;DHT22;29727;47.606;19.130;2023-03-05T08:52:37;6.10;66.70
44063;DHT22;29727;47.606;19.130;2023-03-05T08:55:03;6.10;66.30
44063;DHT22;29727;47.606;19.130;2023-03-05T08:57:29;6.20;66.00
44063;DHT22;29727;47.606;19.130;2023-03-05T08:59:54;6.20;66.30
44063;DHT22;29727;47.606;19.130;2023-03-05T09:02:20;6.10;66.10
44063;DHT22;29727;47.606;19.130;2023-03-05T09:04:45;6.20;66.20
44063;DHT22;29727;47.606;19.130;2023-03-05T09:07:11;6.10;65.90
44063;DHT22;29727;47.606;19.130;2023-03-05T09:09:37;6.20;66.20
44063;DHT22;29727;47.606;19.130;2023-03-05T09:12:03;6.20;66.50
44063;DHT22;29727;47.606;19.130;2023-03-05T09:14:29;6.30;66.00
44063;DHT22;29727;47.606;19.130;2023-03-05T09:16:56;6.30;66.00
44063;DHT22;29727;47.606;19.130;2023-03-05T09:19:22;6.30;65.70
44063;DHT22;29727;47.606;19.130;2023-03-05T09:21:47;6.30;65.90
44063;DHT22;29727;47.606;19.130;2023-03-05T09:24:13;6.40;66.30
44063;DHT22;29727;47.606;19.130;2023-03-05T09:26:39;6.50;66.20
44063;DHT22;29727;47.606;19.130;2023-03-05T09:29:07;6.50;65.30
44063;DHT22;29727;47.606;19.130;2023-03-05T09:31:34;6.60;64.80
44063;DHT22;29727;47.606;19.130;2023-03-05T09:34:00;6.60;64.90
44063;DHT22;29727;47.606;19.130;2023-03-05T09:36:28;6.50;64.70
44063;DHT22;29727;47.606;19.130;2023-03-05T09:38:54;6.50;64.90
44063;DHT22;29727;47.606;19.130;2023-03-05T09:41:43;6.50;65.10
44063;DHT22;29727;47.606;19.130;2023-03-05T09:52:22;6.80;65.70
44063;DHT22;29727;47.606;19.130;2023-03-05T09:54:55;6.80;66.20
44063;DHT22;29727;47.606;19.130;2023-03-05T09:57:24;6.80;66.40
44063;DHT22;29727;47.606;19.130;2023-03-05T10:00:00;6.90;66.20
44063;DHT22;29727;47.606;19.130;2023-03-05T10:02:31;6.90;66.10
44063;DHT22;29727;47.606;19.130;2023-03-05T10:05:17;7.00;65.70
44063;DHT22;29727;47.606;19.130;2023-03-05T10:07:52;6.90;66.00
44063;DHT22;29727;47.606;19.130;2023-03-05T10:10:27;6.80;66.10
44063;DHT22;29727;47.606;19.130;2023-03-05T10:13:01;6.80;66.80
44063;DHT22;29727;47.606;19.130;2023-03-05T10:15:55;6.90;66.80
44063;DHT22;29727;47.606;19.130;2023-03-05T10:21:30;7.00;65.60
44063;DHT22;29727;47.606;19.130;2023-03-05T10:24:16;7.10;65.10
44063;DHT22;29727;47.606;19.130;2023-03-05T10:27:08;7.10;64.70
44063;DHT22;29727;47.606;19.130;2023-03-05T10:29:51;7.10;65.40
44063;DHT22;29727;47.606;19.130;2023-03-05T10:46:15;7.30;63.70
44063;DHT22;29727;47.606;19.130;2023-03-05T10:48:48;7.30;63.40
44063;DHT22;29727;47.606;19.130;2023-03-05T10:53:57;7.30;63.00
44063;DHT22;29727;47.606;19.130;2023-03-05T10:56:25;7.40;62.70
44063;DHT22;29727;47.606;19.130;2023-03-05T10:58:52;7.40;61.40
44063;DHT22;29727;47.606;19.130;2023-03-05T11:01:24;7.50;61.70
44063;DHT22;29727;47.606;19.130;2023-03-05T11:04:00;7.50;61.30
44063;DHT22;29727;47.606;19.130;2023-03-05T11:06:36;7.50;61.30
44063;DHT22;29727;47.606;19.130;2023-03-05T11:09:22;7.50;61.00
44063;DHT22;29727;47.606;19.130;2023-03-05T11:14:27;7.50;61.00
44063;DHT22;29727;47.606;19.130;2023-03-05T11:16:59;7.50;62.10
44063;DHT22;29727;47.606;19.130;2023-03-05T11:19:28;7.50;61.40
44063;DHT22;29727;47.606;19.130;2023-03-05T11:27:34;7.80;60.10
44063;DHT22;29727;47.606;19.130;2023-03-05T11:30:01;7.80;60.00
44063;DHT22;29727;47.606;19.130;2023-03-05T11:32:28;7.80;59.60
44063;DHT22;29727;47.606;19.130;2023-03-05T11:34:55;7.80;59.50
44063;DHT22;29727;47.606;19.130;2023-03-05T11:37:28;7.80;58.00
44063;DHT22;29727;47.606;19.130;2023-03-05T11:42:33;7.60;58.60
44063;DHT22;29727;47.606;19.130;2023-03-05T11:44:59;7.60;59.00
44063;DHT22;29727;47.606;19.130;2023-03-05T11:47:32;7.50;59.20
44063;DHT22;29727;47.606;19.130;2023-03-05T11:52:51;7.30;60.30
44063;DHT22;29727;47.606;19.130;2023-03-05T11:55:27;7.20;60.90
44063;DHT22;29727;47.606;19.130;2023-03-05T11:58:12;7.10;61.50
44063;DHT22;29727;47.606;19.130;2023-03-05T12:00:43;7.00;61.80
44063;DHT22;29727;47.606;19.130;2023-03-05T12:03:20;7.20;61.00
44063;DHT22;29727;47.606;19.130;2023-03-05T12:05:53;7.20;61.20
44063;DHT22;29727;47.606;19.130;2023-03-05T12:08:33;7.10;61.00
44063;DHT22;29727;47.606;19.130;2023-03-05T12:11:05;7.10;61.40
44063;DHT22;29727;47.606;19.130;2023-03-05T12:13:39;7.20;61.60
44063;DHT22;29727;47.606;19.130;2023-03-05T12:16:37;7.30;61.80
44063;DHT22;29727;47.606;19.130;2023-03-05T12:21:53;7.40;61.00
44063;DHT22;29727;47.606;19.130;2023-03-05T12:29:50;7.50;60.00
44063;DHT22;29727;47.606;19.130;2023-03-05T12:35:43;7.50;60.70
44063;DHT22;29727;47.606;19.130;2023-03-05T12:40:21;7.60;59.70
44063;DHT22;29727;47.606;19.130;2023-03-05T12:42:56;7.60;60.20
44063;DHT22;29727;47.606;19.130;2023-03-05T12:45:32;7.70;60.60
44063;DHT22;29727;47.606;19.130;2023-03-05T12:53:13;7.90;58.00
44063;DHT22;29727;47.606;19.130;2023-03-05T12:58:44;8.00;58.10
44063;DHT22;29727;47.606;19.130;2023-03-05T13:04:04;8.00;56.00
44063;DHT22;29727;47.606;19.130;2023-03-05T13:06:35;8.00;56.40
44063;DHT22;29727;47.606;19.130;2023-03-05T13:11:45;8.00;56.10
44063;DHT22;29727;47.606;19.130;2023-03-05T13:16:55;8.10;55.10
44063;DHT22;29727;47.606;19.130;2023-03-05T13:19:21;8.10;55.30
44063;DHT22;29727;47.606;19.130;2023-03-05T13:21:57;8.00;55.40
44063;DHT22;29727;47.606;19.130;2023-03-05T13:24:23;8.00;55.20
44063;DHT22;29727;47.606;19.130;2023-03-05T13:26:49;8.00;54.80
44063;DHT22;29727;47.606;19.130;2023-03-05T13:29:20;8.00;55.00
44063;DHT22;29727;47.606;19.130;2023-03-05T13:31:55;7.90;55.10
44063;DHT22;29727;47.606;19.130;2023-03-05T13:34:30;7.80;55.20
44063;DHT22;29727;47.606;19.130;2023-03-05T13:37:05;7.70;55.40
44063;DHT22;29727;47.606;19.130;2023-03-05T13:39:39;7.60;55.50
44063;DHT22;29727;47.606;19.130;2023-03-05T13:44:40;7.40;57.00
44063;DHT22;29727;47.606;19.130;2023-03-05T13:49:32;7.30;56.80
44063;DHT22;29727;47.606;19.130;2023-03-05T13:51:57;7.30;57.40
44063;DHT22;29727;47.606;19.130;2023-03-05T13:54:27;7.20;57.30
44063;DHT22;29727;47.606;19.130;2023-03-05T13:57:00;7.20;56.80
44063;DHT22;29727;47.606;19.130;2023-03-05T13:59:31;7.20;56.40
44063;DHT22;29727;47.606;19.130;2023-03-05T14:02:03;7.10;56.50
44063;DHT22;29727;47.606;19.130;2023-03-05T14:04:41;7.10;56.70
44063;DHT22;29727;47.606;19.130;2023-03-05T14:07:34;7.20;56.40
44063;DHT22;29727;47.606;19.130;2023-03-05T14:10:02;7.20;56.00
44063;DHT22;29727;47.606;19.130;2023-03-05T14:12:35;7.10;56.20
44063;DHT22;29727;47.606;19.130;2023-03-05T14:17:45;7.10;56.00
44063;DHT22;29727;47.606;19.130;2023-03-05T14:20:26;7.10;56.50
44063;DHT22;29727;47.606;19.130;2023-03-05T14:22:58;7.20;56.30
44063;DHT22;29727;47.606;19.130;2023-03-05T14:27:52;7.20;56.30
44063;DHT22;29727;47.606;19.130;2023-03-05T14:30:20;7.20;56.70
44063;DHT22;29727;47.606;19.130;2023-03-05T14:32:47;7.20;56.20
44063;DHT22;29727;47.606;19.130;2023-03-05T14:35:19;7.20;56.50
44063;DHT22;29727;47.606;19.130;2023-03-05T14:37:47;7.30;55.90
44063;DHT22;29727;47.606;19.130;2023-03-05T14:40:17;7.30;56.50
44063;DHT22;29727;47.606;19.130;2023-03-05T14:42:57;7.30;56.50
44063;DHT22;29727;47.606;19.130;2023-03-05T14:45:29;7.30;55.90
44063;DHT22;29727;47.606;19.130;2023-03-05T14:47:57;7.30;56.50
44063;DHT22;29727;47.606;19.130;2023-03-05T14:50:25;7.40;56.30
44063;DHT22;29727;47.606;19.130;2023-03-05T14:53:00;7.40;55.80
44063;DHT22;29727;47.606;19.130;2023-03-05T14:55:29;7.50;55.50
44063;DHT22;29727;47.606;19.130;2023-03-05T14:58:02;7.50;55.70
44063;DHT22;29727;47.606;19.130;2023-03-05T15:00:29;7.60;55.50
44063;DHT22;29727;47.606;19.130;2023-03-05T15:02:56;7.60;54.50
44063;DHT22;29727;47.606;19.130;2023-03-05T15:05:22;7.60;54.80
44063;DHT22;29727;47.606;19.130;2023-03-05T15:07:49;7.60;54.20
44063;DHT22;29727;47.606;19.130;2023-03-05T15:10:17;7.60;54.60
44063;DHT22;29727;47.606;19.130;2023-03-05T15:12:43;7.50;54.80
44063;DHT22;29727;47.606;19.130;2023-03-05T15:15:14;7.50;55.00
44063;DHT22;29727;47.606;19.130;2023-03-05T15:17:42;7.50;54.80
44063;DHT22;29727;47.606;19.130;2023-03-05T15:20:13;7.50;54.90
44063;DHT22;29727;47.606;19.130;2023-03-05T15:22:39;7.50;55.20
44063;DHT22;29727;47.606;19.130;2023-03-05T15:25:05;7.40;55.50
44063;DHT22;29727;47.606;19.130;2023-03-05T15:27:30;7.40;55.60
44063;DHT22;29727;47.606;19.130;2023-03-05T15:29:56;7.40;55.50
44063;DHT22;29727;47.606;19.130;2023-03-05T15:32:26;7.30;55.60
44063;DHT22;29727;47.606;19.130;2023-03-05T15:34:53;7.30;55.60
44063;DHT22;29727;47.606;19.130;2023-03-05T15:37:19;7.30;55.50
44063;DHT22;29727;47.606;19.130;2023-03-05T15:39:45;7.20;55.70
44063;DHT22;29727;47.606;19.130;2023-03-05T15:42:10;7.20;55.90
44063;DHT22;29727;47.606;19.130;2023-03-05T15:44:36;7.10;55.60
44063;DHT22;29727;47.606;19.130;2023-03-05T15:47:04;7.10;55.60
44063;DHT22;29727;47.606;19.130;2023-03-05T15:49:30;7.00;55.10
44063;DHT22;29727;47.606;19.130;2023-03-05T15:51:56;7.00;55.20
44063;DHT22;29727;47.606;19.130;2023-03-05T15:54:22;6.90;55.30
44063;DHT22;29727;47.606;19.130;2023-03-05T15:56:48;6.90;55.80
44063;DHT22;29727;47.606;19.130;2023-03-05T15:59:13;6.90;55.60
44063;DHT22;29727;47.606;19.130;2023-03-05T16:01:43;6.90;55.30
44063;DHT22;29727;47.606;19.130;2023-03-05T16:04:10;6.90;55.40
44063;DHT22;29727;47.606;19.130;2023-03-05T16:06:35;6.90;55.70
44063;DHT22;29727;47.606;19.130;2023-03-05T16:09:04;6.90;56.00
44063;DHT22;29727;47.606;19.130;2023-03-05T16:11:32;6.80;55.70
44063;DHT22;29727;47.606;19.130;2023-03-05T16:14:02;6.80;55.80
44063;DHT22;29727;47.606;19.130;2023-03-05T16:16:28;6.80;55.50
44063;DHT22;29727;47.606;19.130;2023-03-05T16:18:54;6.80;56.10
44063;DHT22;29727;47.606;19.130;2023-03-05T16:21:21;6.90;56.20
44063;DHT22;29727;47.606;19.130;2023-03-05T16:23:48;6.80;56.20
44063;DHT22;29727;47.606;19.130;2023-03-05T16:26:14;6.80;55.90
44063;DHT22;29727;47.606;19.130;2023-03-05T16:28:40;6.80;56.10
44063;DHT22;29727;47.606;19.130;2023-03-05T16:31:05;6.70;55.70
44063;DHT22;29727;47.606;19.130;2023-03-05T16:33:31;6.60;56.30
44063;DHT22;29727;47.606;19.130;2023-03-05T16:38:36;6.50;56.30
44063;DHT22;29727;47.606;19.130;2023-03-05T16:41:02;6.50;56.60
44063;DHT22;29727;47.606;19.130;2023-03-05T16:43:27;6.60;56.50
44063;DHT22;29727;47.606;19.130;2023-03-05T16:45:53;6.60;56.40
44063;DHT22;29727;47.606;19.130;2023-03-05T16:48:19;6.60;55.90
44063;DHT22;29727;47.606;19.130;2023-03-05T16:50:44;6.70;55.40
44063;DHT22;29727;47.606;19.130;2023-03-05T16:53:10;6.70;55.60
44063;DHT22;29727;47.606;19.130;2023-03-05T16:55:36;6.70;55.60
44063;DHT22;29727;47.606;19.130;2023-03-05T16:58:02;6.60;55.40
44063;DHT22;29727;47.606;19.130;2023-03-05T17:00:28;6.60;55.20
44063;DHT22;29727;47.606;19.130;2023-03-05T17:02:53;6.60;55.60
44063;DHT22;29727;47.606;19.130;2023-03-05T17:05:20;6.60;55.30
44063;DHT22;29727;47.606;19.130;2023-03-05T17:07:46;6.50;55.10